createdAt,value
2022-12-31T00:01:39.990Z,71.16
2022-12-31T00:04:08.674Z,71.27
2022-12-31T00:06:38.224Z,71.40
2022-12-31T00:09:08.466Z,71.51
2022-12-31T00:11:38.496Z,71.47
2022-12-31T00:14:07.649Z,71.52
2022-12-31T00:16:41.950Z,71.59
2022-12-31T00:19:12.411Z,71.51
2022-12-31T00:21:41.105Z,71.80
2022-12-31T00:24:13.026Z,71.72
2022-12-31T00:26:42.361Z,71.80
2022-12-31T00:29:11.073Z,71.77
2022-12-31T00:31:39.916Z,72.08
2022-12-31T00:34:10.307Z,72.01
2022-12-31T00:36:40.091Z,72.08
2022-12-31T00:39:08.918Z,72.12
2022-12-31T00:41:38.290Z,72.02
2022-12-31T00:44:07.133Z,72.28
2022-12-31T00:49:07.649Z,72.41
2022-12-31T00:51:36.576Z,72.47
2022-12-31T00:54:05.178Z,72.44
2022-12-31T00:56:34.257Z,72.48
2022-12-31T00:59:02.880Z,72.53
2022-12-31T01:01:37.412Z,72.74
2022-12-31T01:04:12.041Z,72.61
2022-12-31T01:06:41.824Z,72.67
2022-12-31T01:09:11.903Z,72.55
2022-12-31T01:11:41.155Z,72.65
2022-12-31T01:14:13.662Z,72.65
2022-12-31T01:16:50.891Z,72.75
2022-12-31T01:19:22.455Z,72.52
2022-12-31T01:21:51.976Z,72.59
2022-12-31T01:24:21.471Z,72.72
2022-12-31T01:26:51.925Z,72.84
2022-12-31T01:29:21.535Z,72.89
2022-12-31T01:31:50.237Z,72.85
2022-12-31T01:34:18.903Z,72.94
2022-12-31T01:36:48.335Z,72.92
2022-12-31T01:39:16.897Z,72.82
2022-12-31T01:41:47.425Z,72.92
2022-12-31T01:44:25.542Z,72.92
2022-12-31T01:46:58.671Z,72.97
2022-12-31T01:49:36.664Z,72.94
2022-12-31T01:52:16.223Z,72.95
2022-12-31T01:54:53.063Z,73.02
2022-12-31T01:57:24.705Z,73.20
2022-12-31T01:59:56.451Z,73.24
2022-12-31T02:02:26.033Z,73.18
2022-12-31T02:05:00.266Z,73.33
2022-12-31T02:07:29.781Z,73.24
2022-12-31T02:09:59.575Z,73.26
2022-12-31T02:12:28.229Z,73.36
2022-12-31T02:14:57.128Z,73.34
2022-12-31T02:17:56.465Z,73.20
2022-12-31T02:21:29.257Z,73.05
2022-12-31T02:24:37.056Z,73.16
2022-12-31T02:27:34.386Z,73.38
2022-12-31T02:30:09.370Z,73.50
2022-12-31T02:32:46.906Z,73.34
2022-12-31T02:35:35.077Z,73.40
2022-12-31T02:38:10.022Z,73.42
2022-12-31T02:40:39.782Z,73.35
2022-12-31T02:43:08.395Z,73.53
2022-12-31T02:45:51.153Z,73.39
2022-12-31T02:48:37.410Z,73.53
2022-12-31T02:51:12.278Z,73.52
2022-12-31T02:54:03.011Z,73.61
2022-12-31T02:56:49.999Z,73.64
2022-12-31T02:59:40.766Z,73.66
2022-12-31T03:02:16.616Z,73.74
2022-12-31T03:04:57.595Z,73.57
2022-12-31T03:07:29.214Z,73.77
2022-12-31T03:09:59.669Z,73.75
2022-12-31T03:12:50.336Z,73.69
2022-12-31T03:15:26.591Z,73.69
2022-12-31T03:17:55.330Z,73.61
2022-12-31T03:20:51.121Z,73.73
2022-12-31T03:23:24.517Z,73.75
2022-12-31T03:25:55.250Z,73.82
2022-12-31T03:28:26.833Z,74.00
2022-12-31T03:30:58.631Z,74.14
2022-12-31T03:33:31.357Z,74.08
2022-12-31T03:36:03.904Z,74.24
2022-12-31T03:38:32.721Z,74.07
2022-12-31T03:41:01.892Z,74.20
2022-12-31T03:43:30.724Z,74.35
2022-12-31T03:46:01.826Z,74.37
2022-12-31T03:48:31.289Z,74.29
2022-12-31T03:50:59.900Z,74.36
2022-12-31T03:53:28.508Z,74.46
2022-12-31T03:55:57.852Z,74.54
2022-12-31T03:58:26.561Z,74.55
2022-12-31T04:00:55.266Z,74.72
2022-12-31T04:03:24.634Z,74.55
2022-12-31T04:05:56.485Z,74.72
2022-12-31T04:08:25.822Z,74.86
2022-12-31T04:10:54.811Z,74.66
2022-12-31T04:13:23.467Z,74.59
2022-12-31T04:15:52.732Z,74.59
2022-12-31T04:18:21.490Z,74.79
2022-12-31T04:20:50.087Z,74.76
2022-12-31T04:23:19.273Z,74.68
2022-12-31T04:25:47.814Z,74.79
2022-12-31T04:28:16.448Z,74.64
2022-12-31T04:30:45.868Z,74.92
2022-12-31T04:33:14.732Z,75.02
2022-12-31T04:35:43.378Z,75.02
2022-12-31T04:38:12.328Z,74.83
2022-12-31T04:41:01.208Z,74.95
2022-12-31T04:43:30.889Z,74.93
2022-12-31T04:45:59.833Z,74.90
2022-12-31T04:48:28.774Z,74.97
2022-12-31T04:50:57.703Z,74.99
2022-12-31T04:53:26.337Z,75.20
2022-12-31T04:55:56.188Z,75.33
2022-12-31T04:58:25.481Z,75.22
2022-12-31T05:00:55.684Z,75.28
2022-12-31T05:03:26.613Z,75.35
2022-12-31T05:06:01.866Z,75.49
2022-12-31T05:08:31.264Z,75.49
2022-12-31T05:11:00.971Z,75.49
2022-12-31T05:13:33.371Z,75.63
2022-12-31T05:16:03.813Z,76.02
2022-12-31T05:18:33.172Z,75.69
2022-12-31T05:21:02.130Z,75.83
2022-12-31T05:23:31.422Z,75.90
2022-12-31T05:26:00.744Z,76.05
2022-12-31T05:28:29.375Z,76.07
2022-12-31T05:30:58.823Z,76.16
2022-12-31T05:33:27.445Z,76.43
2022-12-31T05:35:58.832Z,76.33
2022-12-31T05:38:28.601Z,76.39
2022-12-31T05:41:02.690Z,76.33
2022-12-31T05:43:32.515Z,76.41
2022-12-31T05:46:02.611Z,76.49
2022-12-31T05:48:31.403Z,76.63
2022-12-31T05:51:00.694Z,76.66
2022-12-31T05:53:29.367Z,76.81
2022-12-31T05:55:58.084Z,76.90
2022-12-31T05:58:28.680Z,76.99
2022-12-31T06:00:57.440Z,76.88
2022-12-31T06:03:26.109Z,77.10
2022-12-31T06:05:55.134Z,77.22
2022-12-31T06:08:24.285Z,77.38
2022-12-31T06:10:55.256Z,77.12
2022-12-31T06:13:24.756Z,77.32
2022-12-31T06:15:53.395Z,77.55
2022-12-31T06:18:22.093Z,77.39
2022-12-31T06:20:51.371Z,77.52
2022-12-31T06:23:20.404Z,77.62
2022-12-31T06:25:49.160Z,77.60
2022-12-31T06:28:20.506Z,77.83
2022-12-31T06:30:49.575Z,77.89
2022-12-31T06:33:20.036Z,77.73
2022-12-31T06:35:48.627Z,77.75
2022-12-31T06:38:17.554Z,77.80
2022-12-31T06:40:46.458Z,77.84
2022-12-31T06:43:14.974Z,78.36
2022-12-31T06:45:43.814Z,78.19
2022-12-31T06:48:13.152Z,78.26
2022-12-31T06:50:42.185Z,78.14
2022-12-31T06:53:10.826Z,78.18
2022-12-31T06:55:40.000Z,78.22
2022-12-31T06:58:13.682Z,78.17
2022-12-31T07:01:09.309Z,78.36
2022-12-31T07:03:46.877Z,78.29
2022-12-31T07:06:22.915Z,78.31
2022-12-31T07:09:21.444Z,78.60
2022-12-31T07:12:09.227Z,78.74
2022-12-31T07:14:49.884Z,78.78
2022-12-31T07:17:44.254Z,78.89
2022-12-31T07:20:16.365Z,78.81
2022-12-31T07:22:47.354Z,78.80
2022-12-31T07:25:19.948Z,78.80
2022-12-31T07:27:51.756Z,78.92
2022-12-31T07:30:27.230Z,78.92
2022-12-31T07:33:14.818Z,79.01
2022-12-31T07:36:09.528Z,79.06
2022-12-31T07:39:00.418Z,78.90
2022-12-31T07:41:32.297Z,79.00
2022-12-31T07:44:16.425Z,79.24
2022-12-31T07:47:00.082Z,79.30
2022-12-31T07:49:31.011Z,79.22
2022-12-31T07:52:00.334Z,79.17
2022-12-31T07:54:29.140Z,79.10
2022-12-31T07:56:58.181Z,79.18
2022-12-31T07:59:41.833Z,79.15
2022-12-31T08:02:26.365Z,79.24
2022-12-31T08:05:07.270Z,79.35
2022-12-31T08:07:48.403Z,79.23
2022-12-31T08:10:29.531Z,79.22
2022-12-31T08:13:03.370Z,79.09
2022-12-31T08:15:32.911Z,79.10
2022-12-31T08:18:01.804Z,79.25
2022-12-31T08:20:32.889Z,79.26
2022-12-31T08:23:28.500Z,79.23
2022-12-31T08:26:16.021Z,79.25
2022-12-31T08:28:53.396Z,79.29
2022-12-31T08:31:28.246Z,79.15
2022-12-31T08:34:24.092Z,79.14
2022-12-31T08:37:06.887Z,79.30
2022-12-31T08:39:45.741Z,79.23
2022-12-31T08:46:54.639Z,79.25
2022-12-31T08:49:53.400Z,79.43
2022-12-31T08:52:26.781Z,79.40
2022-12-31T08:54:55.852Z,79.50
2022-12-31T08:57:40.083Z,79.41
2022-12-31T09:00:15.456Z,79.39
2022-12-31T09:03:02.949Z,79.32
2022-12-31T09:05:47.714Z,79.31
2022-12-31T09:08:51.453Z,79.41
2022-12-31T09:11:34.944Z,79.43
2022-12-31T09:14:49.953Z,79.43
2022-12-31T09:17:40.655Z,79.37
2022-12-31T09:20:46.156Z,79.32
2022-12-31T09:23:15.151Z,79.32
2022-12-31T09:25:58.375Z,79.15
2022-12-31T09:28:45.241Z,79.07
2022-12-31T09:31:27.133Z,79.09
2022-12-31T09:34:37.989Z,79.17
2022-12-31T09:37:21.325Z,78.98
2022-12-31T09:39:51.441Z,79.03
2022-12-31T09:42:29.226Z,78.81
2022-12-31T09:45:26.928Z,78.72
2022-12-31T09:48:14.580Z,78.78
2022-12-31T09:51:05.807Z,78.76
2022-12-31T09:54:00.089Z,78.79
2022-12-31T09:56:57.111Z,78.74
2022-12-31T09:59:44.426Z,78.72
2022-12-31T10:02:20.812Z,78.62
2022-12-31T10:05:00.584Z,78.58
2022-12-31T10:07:29.536Z,78.38
2022-12-31T10:10:10.084Z,78.44
2022-12-31T10:13:15.878Z,78.45
2022-12-31T10:16:08.116Z,78.37
2022-12-31T10:19:06.569Z,78.34
2022-12-31T10:21:56.883Z,78.30
2022-12-31T10:24:46.087Z,78.27
2022-12-31T10:27:40.531Z,78.15
2022-12-31T10:30:21.774Z,78.24
2022-12-31T10:32:57.596Z,78.15
2022-12-31T10:35:40.418Z,77.90
2022-12-31T10:38:38.052Z,77.81
2022-12-31T10:41:19.419Z,77.94
2022-12-31T10:43:57.051Z,77.75
2022-12-31T10:46:50.718Z,77.80
2022-12-31T10:49:50.698Z,77.69
2022-12-31T10:52:28.410Z,77.73
2022-12-31T10:55:34.497Z,77.69
2022-12-31T10:58:25.511Z,77.73
2022-12-31T11:01:01.059Z,77.58
2022-12-31T11:04:01.725Z,77.54
2022-12-31T11:06:51.747Z,77.49
2022-12-31T11:09:44.877Z,77.43
2022-12-31T11:12:41.437Z,77.40
2022-12-31T11:15:22.490Z,77.31
2022-12-31T11:18:13.483Z,77.27
2022-12-31T11:20:58.126Z,77.20
2022-12-31T11:23:46.832Z,77.26
2022-12-31T11:26:18.747Z,77.13
2022-12-31T11:29:18.419Z,76.99
2022-12-31T11:32:04.348Z,77.10
2022-12-31T11:34:49.714Z,76.91
2022-12-31T11:37:33.764Z,76.93
2022-12-31T11:40:08.943Z,76.94
2022-12-31T11:42:55.629Z,76.93
2022-12-31T11:45:50.245Z,77.02
2022-12-31T11:48:32.572Z,76.87
2022-12-31T11:51:29.054Z,76.71
2022-12-31T11:54:34.051Z,76.54
2022-12-31T11:57:08.864Z,76.49
2022-12-31T11:59:38.489Z,76.45
2022-12-31T12:02:37.614Z,76.48
2022-12-31T12:05:11.101Z,76.30
2022-12-31T12:07:40.291Z,76.28
2022-12-31T12:10:22.767Z,76.51
2022-12-31T12:12:53.426Z,76.42
2022-12-31T12:15:30.180Z,76.29
2022-12-31T12:18:05.319Z,76.22
2022-12-31T12:20:37.901Z,76.22
2022-12-31T12:23:26.672Z,76.07
2022-12-31T12:25:55.792Z,76.05
2022-12-31T12:28:26.915Z,75.95
2022-12-31T12:31:04.617Z,76.04
2022-12-31T12:33:46.870Z,75.95
2022-12-31T12:36:18.470Z,76.00
2022-12-31T12:38:47.937Z,75.84
2022-12-31T12:41:25.613Z,75.76
2022-12-31T12:44:13.860Z,75.73
2022-12-31T12:46:48.996Z,75.83
2022-12-31T12:49:31.944Z,75.82
2022-12-31T12:52:16.099Z,75.94
2022-12-31T12:55:12.132Z,75.93
2022-12-31T12:58:25.800Z,75.94
2022-12-31T13:01:09.861Z,75.93
2022-12-31T13:04:34.061Z,75.83
2022-12-31T13:07:18.093Z,75.90
2022-12-31T13:10:03.184Z,75.86
2022-12-31T13:15:53.876Z,75.89
2022-12-31T13:18:52.917Z,75.91
2022-12-31T13:21:24.818Z,75.89
2022-12-31T13:24:32.551Z,75.91
2022-12-31T13:27:29.293Z,75.84
2022-12-31T13:30:03.112Z,75.90
2022-12-31T13:32:42.913Z,75.91
2022-12-31T13:35:30.681Z,75.88
2022-12-31T13:38:12.888Z,75.87
2022-12-31T13:41:09.933Z,75.95
2022-12-31T13:44:14.211Z,75.90
2022-12-31T13:47:04.775Z,75.85
2022-12-31T13:49:36.510Z,75.85
2022-12-31T13:52:11.401Z,75.96
2022-12-31T13:54:51.999Z,75.92
2022-12-31T13:57:47.726Z,75.97
2022-12-31T14:00:25.721Z,75.89
2022-12-31T14:03:20.031Z,75.91
2022-12-31T14:06:04.046Z,75.94
2022-12-31T14:08:33.105Z,75.88
2022-12-31T14:11:23.307Z,75.87
2022-12-31T14:14:28.323Z,75.85
2022-12-31T14:17:17.837Z,75.91
2022-12-31T14:19:46.554Z,75.93
2022-12-31T14:22:33.135Z,75.95
2022-12-31T14:25:06.617Z,75.83
2022-12-31T14:27:43.661Z,75.77
2022-12-31T14:30:21.047Z,75.80
2022-12-31T14:33:08.739Z,75.89
2022-12-31T14:36:08.262Z,75.86
2022-12-31T14:38:57.923Z,75.92
2022-12-31T14:41:52.949Z,75.95
2022-12-31T14:44:25.131Z,75.94
2022-12-31T14:47:16.470Z,75.92
2022-12-31T14:50:05.626Z,75.96
2022-12-31T14:52:48.013Z,75.94
2022-12-31T14:55:23.229Z,76.00
2022-12-31T14:58:26.538Z,76.03
2022-12-31T15:00:53.963Z,76.02
2022-12-31T15:03:26.979Z,76.12
2022-12-31T15:06:28.843Z,76.03
2022-12-31T15:09:35.467Z,76.10
2022-12-31T15:12:19.897Z,76.04
2022-12-31T15:15:05.592Z,76.06
2022-12-31T15:17:40.338Z,76.13
2022-12-31T15:20:45.157Z,76.13
2022-12-31T15:23:25.912Z,76.26
2022-12-31T15:26:06.144Z,76.25
2022-12-31T15:28:38.827Z,76.14
2022-12-31T15:31:17.469Z,76.24
2022-12-31T15:34:39.973Z,76.29
2022-12-31T15:37:30.602Z,76.27
2022-12-31T15:40:17.999Z,76.35
2022-12-31T15:42:52.890Z,76.31
2022-12-31T15:45:41.066Z,76.25
2022-12-31T15:48:31.791Z,76.31
2022-12-31T15:51:05.209Z,76.23
2022-12-31T15:53:43.434Z,76.27
2022-12-31T15:56:20.000Z,76.32
2022-12-31T15:58:55.037Z,76.38
2022-12-31T16:01:30.320Z,76.48
2022-12-31T16:04:14.858Z,76.45
2022-12-31T16:06:50.319Z,76.42
2022-12-31T16:09:31.842Z,76.42
2022-12-31T16:12:02.601Z,76.42
2022-12-31T16:14:45.539Z,76.52
2022-12-31T16:17:29.687Z,76.50
2022-12-31T16:20:00.146Z,76.46
2022-12-31T16:22:30.119Z,76.43
2022-12-31T16:27:51.949Z,76.39
2022-12-31T16:30:22.529Z,76.47
2022-12-31T16:32:52.744Z,76.44
2022-12-31T16:35:23.621Z,76.37
2022-12-31T16:38:11.551Z,76.43
2022-12-31T16:41:04.345Z,76.43
2022-12-31T16:43:39.104Z,76.42
2022-12-31T16:46:30.677Z,76.49
2022-12-31T16:49:04.012Z,76.46
2022-12-31T16:51:37.648Z,76.47
2022-12-31T16:54:35.662Z,76.45
2022-12-31T16:57:06.503Z,76.55
2022-12-31T16:59:40.421Z,76.51
2022-12-31T17:02:20.789Z,76.48
2022-12-31T17:04:56.040Z,76.48
2022-12-31T17:07:31.481Z,76.42
2022-12-31T17:10:03.504Z,76.40
2022-12-31T17:12:53.013Z,76.48
2022-12-31T17:15:41.907Z,76.46
2022-12-31T17:18:21.020Z,76.42
2022-12-31T17:20:52.805Z,76.43
2022-12-31T17:23:32.181Z,76.45
2022-12-31T17:26:11.632Z,76.38
2022-12-31T17:28:46.963Z,76.43
2022-12-31T17:31:36.407Z,76.47
2022-12-31T17:34:14.164Z,76.44
2022-12-31T17:37:19.888Z,76.41
2022-12-31T17:39:50.956Z,76.46
2022-12-31T17:42:38.623Z,76.43
2022-12-31T17:45:21.335Z,76.41
2022-12-31T17:47:54.092Z,76.37
2022-12-31T17:50:26.109Z,76.40
2022-12-31T17:53:22.635Z,76.38
2022-12-31T17:55:54.544Z,76.38
2022-12-31T17:58:29.769Z,76.37
2022-12-31T18:00:59.788Z,76.34
2022-12-31T18:03:51.250Z,76.26
2022-12-31T18:06:56.561Z,76.21
2022-12-31T18:09:45.695Z,76.20
2022-12-31T18:12:35.732Z,76.24
2022-12-31T18:15:36.635Z,76.21
2022-12-31T18:18:32.161Z,76.29
2022-12-31T18:21:41.914Z,76.23
2022-12-31T18:24:27.238Z,76.10
2022-12-31T18:27:32.989Z,76.12
2022-12-31T18:30:27.656Z,76.10
2022-12-31T18:33:28.262Z,76.11
2022-12-31T18:36:22.783Z,76.11
2022-12-31T18:39:21.771Z,76.08
2022-12-31T18:41:57.751Z,76.01
2022-12-31T18:44:27.179Z,76.02
2022-12-31T18:46:56.315Z,75.96
2022-12-31T18:49:25.007Z,75.97
2022-12-31T18:51:55.507Z,75.99
2022-12-31T18:54:23.939Z,75.99
2022-12-31T18:56:56.891Z,75.95
2022-12-31T18:59:26.328Z,75.92
2022-12-31T19:01:55.167Z,75.74
2022-12-31T19:04:28.111Z,75.72
2022-12-31T19:06:58.029Z,75.71
2022-12-31T19:12:15.997Z,75.70
2022-12-31T19:14:45.811Z,75.68
2022-12-31T19:17:14.808Z,75.66
2022-12-31T19:19:44.145Z,75.59
2022-12-31T19:22:15.931Z,75.62
2022-12-31T19:24:45.409Z,75.40
2022-12-31T19:27:14.411Z,75.41
2022-12-31T19:29:43.163Z,75.49
2022-12-31T19:32:12.855Z,75.39
2022-12-31T19:34:44.385Z,75.33
2022-12-31T19:37:16.332Z,75.25
2022-12-31T19:39:47.761Z,75.15
2022-12-31T19:42:17.266Z,75.10
2022-12-31T19:44:46.135Z,75.03
2022-12-31T19:47:17.507Z,75.01
2022-12-31T19:49:46.230Z,75.03
2022-12-31T19:52:15.049Z,74.94
2022-12-31T19:54:44.016Z,74.94
2022-12-31T19:57:12.668Z,74.86
2022-12-31T19:59:41.561Z,74.72
2022-12-31T20:02:10.777Z,74.67
2022-12-31T20:04:39.574Z,74.61
2022-12-31T20:07:08.483Z,74.59
2022-12-31T20:09:37.492Z,74.54
2022-12-31T20:12:06.462Z,74.58
2022-12-31T20:14:35.431Z,74.55
2022-12-31T20:17:04.572Z,74.46
2022-12-31T20:19:33.250Z,74.48
2022-12-31T20:22:02.940Z,74.25
2022-12-31T20:24:32.283Z,74.20
2022-12-31T20:27:00.975Z,74.24
2022-12-31T20:29:30.008Z,74.30
2022-12-31T20:31:59.772Z,74.35
2022-12-31T20:34:29.141Z,74.32
2022-12-31T20:36:57.969Z,74.21
2022-12-31T20:39:27.316Z,74.10
2022-12-31T20:41:55.935Z,74.21
2022-12-31T20:44:24.453Z,74.16
2022-12-31T20:46:53.736Z,74.09
2022-12-31T20:49:37.533Z,74.11
2022-12-31T20:52:11.839Z,74.09
2022-12-31T20:54:40.438Z,74.15
2022-12-31T20:57:08.985Z,74.11
2022-12-31T20:59:39.033Z,74.03
2022-12-31T21:02:20.932Z,73.88
2022-12-31T21:05:04.125Z,73.89
2022-12-31T21:07:36.221Z,73.91
2022-12-31T21:10:06.423Z,73.91
2022-12-31T21:12:44.710Z,73.93
2022-12-31T21:15:14.321Z,73.90
2022-12-31T21:17:48.532Z,73.88
2022-12-31T21:20:18.410Z,73.77
2022-12-31T21:22:49.927Z,73.71
2022-12-31T21:25:19.396Z,73.61
2022-12-31T21:27:47.928Z,73.51
2022-12-31T21:30:18.708Z,73.44
2022-12-31T21:32:51.474Z,73.45
2022-12-31T21:38:12.925Z,73.22
2022-12-31T21:40:42.216Z,73.07
2022-12-31T21:43:11.998Z,73.10
2022-12-31T21:45:41.585Z,73.05
2022-12-31T21:48:21.760Z,73.07
2022-12-31T21:51:10.252Z,72.99
2022-12-31T21:53:39.229Z,72.78
2022-12-31T21:56:09.629Z,72.80
2022-12-31T21:58:44.990Z,72.80
2022-12-31T22:01:39.458Z,72.72
2022-12-31T22:04:35.352Z,72.61
2022-12-31T22:07:00.150Z,72.47
2022-12-31T22:09:28.851Z,72.37
2022-12-31T22:11:57.558Z,72.38
2022-12-31T22:14:26.493Z,72.23
2022-12-31T22:16:55.291Z,72.13
2022-12-31T22:19:25.033Z,72.21
2022-12-31T22:21:53.926Z,72.17
2022-12-31T22:24:22.726Z,72.02
2022-12-31T22:26:52.528Z,71.71
2022-12-31T22:29:24.068Z,71.70
2022-12-31T22:31:57.998Z,71.70
2022-12-31T22:34:32.937Z,71.61
2022-12-31T22:37:14.389Z,71.46
2022-12-31T22:39:51.877Z,71.21
2022-12-31T22:42:20.936Z,71.03
2022-12-31T22:44:50.442Z,71.09
2022-12-31T22:47:19.495Z,70.92
2022-12-31T22:49:48.325Z,70.89
2022-12-31T22:52:18.303Z,70.76
2022-12-31T22:54:47.210Z,70.60
2022-12-31T22:57:20.007Z,70.59
2022-12-31T22:59:51.738Z,70.51
2022-12-31T23:02:20.487Z,70.61
2022-12-31T23:04:49.400Z,70.52
2022-12-31T23:07:18.683Z,70.43
2022-12-31T23:10:28.939Z,70.53
2022-12-31T23:13:19.302Z,70.43
2022-12-31T23:16:08.036Z,70.46
2022-12-31T23:18:59.215Z,70.39
2022-12-31T23:21:51.127Z,70.28
2022-12-31T23:24:26.118Z,70.29
2022-12-31T23:26:58.905Z,70.17
2022-12-31T23:29:28.636Z,70.05
2022-12-31T23:31:57.483Z,70.09
2022-12-31T23:34:26.115Z,70.00
2022-12-31T23:36:55.753Z,69.73
2022-12-31T23:39:24.763Z,69.63
2022-12-31T23:41:53.502Z,69.57
2022-12-31T23:44:22.746Z,69.51
2022-12-31T23:46:52.295Z,69.51
2022-12-31T23:49:21.213Z,69.27
2022-12-31T23:51:51.350Z,69.43
2022-12-31T23:54:20.442Z,69.19
2022-12-31T23:56:50.117Z,69.12
2022-12-31T23:59:19.508Z,68.94
